Time;durP1;ratioP1;P1;durP2;ratioP2;P2;SDS_P1;SDS_P2;PMS_P1;PMS_P2;Temp;Humidity;BMP_temperature;BMP_pressure;BME280_temperature;BME280_humidity;BME280_pressure;Samples;Min_cycle;Max_cycle;Signal;HPM_P1;HPM_P2
2021/07/02 00:01:00;;;;;;;19.73;18.23;;;;;;;;;;2089105;28;20222;-76
2021/07/02 00:02:01;;;;;;;19.70;18.10;;;;;;;;;;2088963;28;20449;-75
2021/07/02 00:03:02;;;;;;;20.67;18.87;;;;;;;;;;2081035;28;20227;-76
2021/07/02 00:04:04;;;;;;;20.40;18.50;;;;;;;;;;2088891;28;20919;-76
2021/07/02 00:05:05;;;;;;;20.40;18.60;;;;;;;;;;2089136;28;20227;-76
2021/07/02 00:06:07;;;;;;;19.95;18.40;;;;;;;;;;2080892;28;20307;-76
2021/07/02 00:07:09;;;;;;;19.67;18.10;;;;;;;;;;2088531;28;20599;-76
2021/07/02 00:08:10;;;;;;;18.88;17.48;;;;;;;;;;2089704;28;20313;-76
2021/07/02 00:09:11;;;;;;;20.70;18.70;;;;;;;;;;2089645;28;20219;-77
2021/07/02 00:10:13;;;;;;;19.20;17.50;;;;;;;;;;2089825;28;20457;-76
2021/07/02 00:11:14;;;;;;;19.33;17.73;;;;;;;;;;2088859;28;20238;-76
2021/07/02 00:12:15;;;;;;;20.73;18.80;;;;;;;;;;2088990;28;20520;-76
2021/07/02 00:13:16;;;;;;;20.27;18.67;;;;;;;;;;2089211;28;20448;-76
2021/07/02 00:14:18;;;;;;;20.50;18.80;;;;;;;;;;2089676;28;20711;-77
2021/07/02 00:15:19;;;;;;;19.15;17.65;;;;;;;;;;2089833;28;20460;-77
2021/07/02 00:16:20;;;;;;;20.10;18.40;;;;;;;;;;2089853;28;20222;-76
2021/07/02 00:17:21;;;;;;;19.73;18.23;;;;;;;;;;2089607;28;20716;-76
2021/07/02 00:18:22;;;;;;;19.87;18.37;;;;;;;;;;2089774;28;20827;-77
2021/07/02 00:19:24;;;;;;;19.93;18.10;;;;;;;;;;2089833;28;20231;-76
2021/07/02 00:20:26;;;;;;;20.90;18.83;;;;;;;;;;2089546;28;20457;-76
2021/07/02 00:21:27;;;;;;;19.77;18.20;;;;;;;;;;2088890;28;20457;-76
2021/07/02 00:22:30;;;;;;;20.80;18.87;;;;;;;;;;2089098;28;20219;-76
2021/07/02 00:23:30;;;;;;;19.67;18.10;;;;;;;;;;2089742;28;20245;-76
2021/07/02 00:24:32;;;;;;;20.70;18.60;;;;;;;;;;2089617;28;20222;-76
2021/07/02 00:25:32;;;;;;;20.03;18.43;;;;;;;;;;2088905;28;20234;-75
2021/07/02 00:26:35;;;;;;;20.50;18.77;;;;;;;;;;2089025;28;20481;-75
2021/07/02 00:27:36;;;;;;;20.45;18.60;;;;;;;;;;2089536;28;20681;-76
2021/07/02 00:28:38;;;;;;;19.97;18.30;;;;;;;;;;2088279;28;20566;-77
2021/07/02 00:29:38;;;;;;;19.85;18.20;;;;;;;;;;2088932;28;20693;-77
2021/07/02 00:30:40;;;;;;;20.73;18.63;;;;;;;;;;2089002;28;20574;-75
2021/07/02 00:31:41;;;;;;;20.63;18.83;;;;;;;;;;2080724;28;20682;-77
2021/07/02 00:32:42;;;;;;;20.17;18.57;;;;;;;;;;2080670;28;20629;-76
2021/07/02 00:33:43;;;;;;;19.42;18.02;;;;;;;;;;2080755;28;20230;-76
2021/07/02 00:34:44;;;;;;;20.37;18.87;;;;;;;;;;2089020;28;20251;-75
2021/07/02 00:35:45;;;;;;;20.45;18.27;;;;;;;;;;2088705;28;20219;-76
2021/07/02 00:36:47;;;;;;;20.30;18.53;;;;;;;;;;2088834;28;20223;-76
2021/07/02 00:37:48;;;;;;;20.77;18.90;;;;;;;;;;2089029;28;20219;-77
2021/07/02 00:38:50;;;;;;;19.85;18.25;;;;;;;;;;2088849;28;21014;-75
2021/07/02 00:39:51;;;;;;;20.35;18.85;;;;;;;;;;2088883;28;20269;-76
2021/07/02 00:40:52;;;;;;;20.00;18.40;;;;;;;;;;2080594;28;20681;-76
2021/07/02 00:41:53;;;;;;;20.65;18.90;;;;;;;;;;2080144;28;20708;-76
2021/07/02 00:42:54;;;;;;;20.33;18.73;;;;;;;;;;2080399;28;20235;-76
2021/07/02 00:43:55;;;;;;;19.97;18.30;;;;;;;;;;2088589;28;20231;-76
2021/07/02 00:44:57;;;;;;;19.90;18.30;;;;;;;;;;2080827;28;22949;-76
2021/07/02 00:45:58;;;;;;;20.03;18.23;;;;;;;;;;2080526;28;20458;-76
2021/07/02 00:47:00;;;;;;;20.50;17.77;;;;;;;;;;2080031;28;20446;-76
2021/07/02 00:48:01;;;;;;;19.17;17.58;;;;;;;;;;2080718;28;20223;-75
2021/07/02 00:49:02;;;;;;;19.27;17.87;;;;;;;;;;2088696;28;20301;-76
2021/07/02 00:50:03;;;;;;;19.70;18.17;;;;;;;;;;2088938;28;20276;-75
2021/07/02 00:51:05;;;;;;;20.03;18.40;;;;;;;;;;2088592;28;20751;-76
2021/07/02 00:52:06;;;;;;;20.00;18.30;;;;;;;;;;2080513;28;20223;-77
2021/07/02 00:53:12;;;;;;;20.43;18.63;;;;;;;;;;2080188;28;20513;-75
2021/07/02 00:54:13;;;;;;;20.57;18.77;;;;;;;;;;2088696;28;20450;-76
2021/07/02 00:55:15;;;;;;;20.15;18.45;;;;;;;;;;2088498;28;21015;-76
2021/07/02 00:56:17;;;;;;;20.13;18.37;;;;;;;;;;2080460;28;20223;-76
2021/07/02 00:57:18;;;;;;;20.58;18.90;;;;;;;;;;2080567;28;20449;-76
2021/07/02 00:58:19;;;;;;;20.33;18.63;;;;;;;;;;2080419;28;20226;-75
2021/07/02 00:59:22;;;;;;;20.92;19.23;;;;;;;;;;2080463;28;20218;-76
2021/07/02 01:00:22;;;;;;;20.20;18.70;;;;;;;;;;2088207;28;20689;-75
2021/07/02 01:01:25;;;;;;;20.83;19.03;;;;;;;;;;2088459;28;20453;-76
2021/07/02 01:02:30;;;;;;;21.38;19.00;;;;;;;;;;2088487;28;20457;-76
2021/07/02 01:03:32;;;;;;;20.87;19.07;;;;;;;;;;2087676;28;20748;-76
2021/07/02 01:04:33;;;;;;;20.93;19.23;;;;;;;;;;2080312;28;20458;-76
2021/07/02 01:05:34;;;;;;;21.10;19.20;;;;;;;;;;2080589;28;20500;-75
2021/07/02 01:06:36;;;;;;;20.50;18.83;;;;;;;;;;2088300;28;20304;-76
2021/07/02 01:07:38;;;;;;;20.63;18.73;;;;;;;;;;2079971;28;20454;-76
2021/07/02 01:08:41;;;;;;;20.23;18.53;;;;;;;;;;2088498;28;20296;-76
2021/07/02 01:09:43;;;;;;;21.13;19.33;;;;;;;;;;2088394;28;20990;-77
2021/07/02 01:10:45;;;;;;;20.73;18.90;;;;;;;22.40;100.00;57707.53;2088329;28;20450;-76
2021/07/02 01:11:47;;;;;;;21.27;19.30;;;;;;;;;;2088504;28;21002;-76
2021/07/02 01:12:48;;;;;;;20.53;18.93;;;;;;;;;;2089312;28;20457;-76
2021/07/02 01:13:50;;;;;;;22.05;19.85;;;;;;;;;;2088445;28;20465;-76
2021/07/02 01:14:51;;;;;;;20.33;18.73;;;;;;;;;;2088585;28;20223;-77
2021/07/02 01:15:54;;;;;;;20.37;18.70;;;;;;;;;;2088020;28;20476;-76
2021/07/02 01:16:56;;;;;;;21.23;19.10;;;;;;;;;;2088387;28;20495;-76
2021/07/02 01:17:58;;;;;;;20.60;18.80;;;;;;;;;;2080473;28;20231;-76
2021/07/02 01:18:59;;;;;;;22.13;19.10;;;;;;;;;;2080249;28;20454;-76
2021/07/02 01:20:01;;;;;;;20.80;18.67;;;;;;;;;;2088358;28;20697;-77
2021/07/02 01:21:11;;;;;;;20.63;18.70;;;;;;;;;;2080329;28;20246;-76
2021/07/02 01:22:14;;;;;;;20.03;18.43;;;;;;;;;;2088649;28;20539;-76
2021/07/02 01:23:15;;;;;;;21.02;19.23;;;;;;;;;;2088523;28;20461;-76
2021/07/02 01:24:17;;;;;;;19.87;18.37;;;;;;;;;;2088697;28;20222;-76
2021/07/02 01:25:18;;;;;;;20.93;19.20;;;;;;;;;;2088360;28;20233;-77
2021/07/02 01:26:20;;;;;;;20.58;18.90;;;;;;;;;;2088435;28;20923;-76
2021/07/02 01:27:22;;;;;;;20.57;18.87;;;;;;;;;;2081925;28;20243;-77
2021/07/02 01:28:23;;;;;;;20.20;18.50;;;;;;;;;;2079777;28;20993;-76
2021/07/02 01:29:24;;;;;;;21.33;19.50;;;;;;;;;;2072021;28;20961;-76
2021/07/02 01:30:27;;;;;;;20.57;18.80;;;;;;;;;;2080296;28;20454;-76
2021/07/02 01:31:28;;;;;;;20.95;19.05;;;;;;;;;;2080975;28;20840;-76
2021/07/02 01:32:29;;;;;;;21.20;19.23;;;;;;;;;;2080191;28;20301;-76
2021/07/02 01:33:30;;;;;;;20.53;18.80;;;;;;;;;;2071864;28;20247;-76
2021/07/02 01:34:31;;;;;;;20.43;18.80;;;;;;;;;;2072038;28;20538;-76
2021/07/02 01:35:32;;;;;;;20.63;18.83;;;;;;;;;;2072007;28;20215;-76
2021/07/02 01:36:35;;;;;;;21.03;19.13;;;;;;;;;;2071725;28;20459;-76
2021/07/02 01:37:40;;;;;;;23.10;19.53;;;;;;;;;;2086455;28;20234;-76
2021/07/02 01:38:43;;;;;;;21.10;19.20;;;;;;;;;;2088331;28;20972;-76
2021/07/02 01:39:44;;;;;;;21.07;19.40;;;;;;;;;;2088424;28;20525;-76
2021/07/02 01:40:47;;;;;;;20.83;18.90;;;;;;;;;;2088318;28;20572;-76
2021/07/02 01:41:48;;;;;;;20.73;18.93;;;;;;;;;;2088282;28;21121;-75
2021/07/02 01:42:50;;;;;;;22.13;19.43;;;;;;;;;;2088380;28;20915;-76
2021/07/02 01:43:51;;;;;;;20.73;19.15;;;;;;;;;;2080122;28;20227;-76
2021/07/02 01:44:53;;;;;;;21.80;19.80;;;;;;;;;;2088025;28;20237;-76
2021/07/02 01:45:54;;;;;;;21.30;19.25;;;;;;;;;;2088230;28;20234;-75
2021/07/02 01:46:56;;;;;;;21.83;19.80;;;;;;;;;;2080297;28;20315;-75
2021/07/02 01:47:58;;;;;;;22.20;20.30;;;;;;;;;;2079919;28;20446;-76
2021/07/02 01:49:03;;;;;;;21.30;19.57;;;;;;;;;;2088291;28;20453;-77
2021/07/02 01:50:07;;;;;;;22.23;19.90;;;;;;;;;;2088483;28;20983;-76
2021/07/02 01:51:10;;;;;;;21.50;19.70;;;;;;;;;;2088025;28;20465;-76
2021/07/02 01:52:13;;;;;;;21.60;19.70;;;;;;;;;;2080271;28;20533;-76
2021/07/02 01:53:14;;;;;;;21.15;19.35;;;;;;;;;;2079801;28;20499;-76
2021/07/02 01:54:15;;;;;;;22.00;19.80;;;;;;;;;;2080061;28;20230;-76
2021/07/02 01:55:17;;;;;;;21.50;19.63;;;;;;;;;;2088142;28;20449;-76
2021/07/02 01:56:18;;;;;;;22.45;20.30;;;;;;;;;;2079902;28;20223;-76
2021/07/02 01:57:24;;;;;;;22.38;20.38;;;;;;;;;;2079905;28;20219;-76
2021/07/02 01:58:25;;;;;;;21.30;19.55;;;;;;;;;;2080259;28;20581;-76
2021/07/02 01:59:35;;;;;;;22.55;20.52;;;;;;;;;;2088205;28;20226;-76
2021/07/02 02:00:42;;;;;;;21.70;19.98;;;;;;;;;;2079980;28;20226;-76
2021/07/02 02:01:49;;;;;;;21.85;19.85;;;;;;;;;;2080920;28;20215;-76
2021/07/02 02:02:53;;;;;;;21.83;19.83;;;;;;;;;;2079639;28;20584;-76
2021/07/02 02:03:54;;;;;;;21.67;19.77;;;;;;;22.40;100.00;57726.78;2088063;28;20226;-76
2021/07/02 02:04:58;;;;;;;21.33;19.33;;;;;;;22.40;100.00;57726.78;2087797;28;20280;-76
2021/07/02 02:05:59;;;;;;;21.42;19.38;;;;;;;;;;2087955;28;20268;-76
2021/07/02 02:07:00;;;;;;;20.70;18.67;;;;;;;;;;2087900;28;20701;-76
2021/07/02 02:08:06;;;;;;;20.90;19.20;;;;;;;22.40;100.00;124665.31;2088133;28;20226;-76
2021/07/02 02:09:07;;;;;;;20.13;18.42;;;;;;;;;;2079671;28;20215;-77
2021/07/02 02:10:10;;;;;;;20.67;18.70;;;;;;;22.40;100.00;57744.00;2079946;28;20797;-75
2021/07/02 02:11:11;;;;;;;19.75;18.25;;;;;;;;;;2079923;28;22260;-75
2021/07/02 02:12:19;;;;;;;19.97;18.33;;;;;;;;;;2080409;28;20226;-76
2021/07/02 02:13:23;;;;;;;20.67;18.67;;;;;;;;;;2087666;28;20449;-77
2021/07/02 02:14:32;;;;;;;20.60;18.27;;;;;;;;;;2080483;28;20682;-76
2021/07/02 02:15:35;;;;;;;20.33;18.63;;;;;;;;;;2080126;28;20713;-76
2021/07/02 02:16:41;;;;;;;20.38;18.70;;;;;;;;;;2087665;28;20233;-76
2021/07/02 02:17:44;;;;;;;20.17;18.67;;;;;;;;;;2087969;28;20226;-76
2021/07/02 02:18:45;;;;;;;21.13;19.30;;;;;;;;;;2087900;28;20218;-76
2021/07/02 02:19:49;;;;;;;20.63;18.83;;;;;;;;;;2088123;28;20234;-76
2021/07/02 02:20:51;;;;;;;20.57;18.97;;;;;;;;;;2079865;28;20458;-76
2021/07/02 02:21:52;;;;;;;20.20;18.60;;;;;;;;;;2079412;28;20450;-76
2021/07/02 02:22:54;;;;;;;20.27;18.35;;;;;;;;;;2081869;28;20227;-75
2021/07/02 02:23:57;;;;;;;20.55;18.77;;;;;;;;;;2071687;28;20703;-75
2021/07/02 02:24:59;;;;;;;20.75;19.15;;;;;;;;;;2079772;28;20231;-76
2021/07/02 02:26:00;;;;;;;20.52;18.92;;;;;;;;;;2082665;28;20302;-76
2021/07/02 02:27:03;;;;;;;21.13;19.25;;;;;;;;;;2079683;28;20226;-77
2021/07/02 02:28:04;;;;;;;22.33;20.35;;;;;;;;;;2079773;28;20219;-76
2021/07/02 02:29:05;;;;;;;20.77;18.90;;;;;;;;;;2079848;28;20226;-76
2021/07/02 02:30:07;;;;;;;20.88;18.85;;;;;;;;;;2079824;28;20705;-76
2021/07/02 02:31:08;;;;;;;20.98;19.33;;;;;;;;;;2079241;28;20613;-76
2021/07/02 02:32:11;;;;;;;21.70;19.70;;;;;;;;;;2079687;28;20306;-76
2021/07/02 02:33:12;;;;;;;22.23;20.30;;;;;;;;;;2073363;28;20228;-76
2021/07/02 02:34:14;;;;;;;22.98;20.83;;;;;;;;;;2071551;28;20700;-76
2021/07/02 02:35:15;;;;;;;22.47;20.60;;;;;;;;;;2078826;28;20224;-76
2021/07/02 02:36:16;;;;;;;21.38;19.60;;;;;;;;;;2080275;28;20607;-77
2021/07/02 02:37:18;;;;;;;22.77;20.40;;;;;;;;;;2079802;28;20310;-77
2021/07/02 02:38:19;;;;;;;21.25;19.45;;;;;;;;;;2079660;28;20545;-76
2021/07/02 02:39:22;;;;;;;21.83;20.00;;;;;;;;;;2071378;28;20220;-76
2021/07/02 02:40:23;;;;;;;21.38;19.58;;;;;;;;;;2077076;28;20554;-76
2021/07/02 02:41:24;;;;;;;21.57;19.57;;;;;;;;;;2079425;28;20304;-76
2021/07/02 02:42:26;;;;;;;21.30;19.30;;;;;;;;;;2079668;28;20678;-76
2021/07/02 02:43:27;;;;;;;21.17;19.37;;;;;;;;;;2088063;28;20595;-77
2021/07/02 02:44:28;;;;;;;21.70;19.80;;;;;;;;;;2087785;28;20296;-75
2021/07/02 02:45:29;;;;;;;21.90;19.87;;;;;;;;;;2087989;28;20218;-76
2021/07/02 02:46:32;;;;;;;21.83;19.98;;;;;;;;;;2088613;28;20219;-75
2021/07/02 02:47:35;;;;;;;22.95;20.65;;;;;;;;;;2088025;28;20218;-76
2021/07/02 02:48:37;;;;;;;22.63;20.60;;;;;;;;;;2081338;28;20219;-75
2021/07/02 02:49:37;;;;;;;22.73;20.55;;;;;;;;;;2086375;28;20223;-76
2021/07/02 02:50:39;;;;;;;23.20;20.90;;;;;;;;;;2087830;28;20246;-76
2021/07/02 02:51:40;;;;;;;23.23;20.73;;;;;;;;;;2079501;28;20227;-76
2021/07/02 02:52:42;;;;;;;23.33;21.02;;;;;;;;;;2079655;28;20227;-76
2021/07/02 02:53:42;;;;;;;22.67;20.50;;;;;;;;;;2087897;28;20712;-76
2021/07/02 02:54:45;;;;;;;23.57;21.03;;;;;;;;;;2088144;28;20331;-76
2021/07/02 02:55:46;;;;;;;23.38;20.98;;;;;;;;;;2088407;28;20252;-75
2021/07/02 02:57:06;;;;;;;22.23;20.23;;;;;;;;;;2087843;28;20214;-75
2021/07/02 02:58:13;;;;;;;23.45;21.08;;;;;;;22.40;100.00;57713.63;2077252;28;20234;-76
2021/07/02 02:59:16;;;;;;;23.60;21.30;;;;;;;22.41;100.00;91335.66;2071642;28;20308;-75
2021/07/02 03:00:17;;;;;;;23.35;21.25;;;;;;;;;;2071590;28;20216;-76
2021/07/02 03:01:22;;;;;;;23.27;21.25;;;;;;;;;;2079547;28;20305;-76
2021/07/02 03:02:26;;;;;;;23.02;20.77;;;;;;;;;;2077988;28;20227;-77
2021/07/02 03:03:30;;;;;;;22.65;20.60;;;;;;;;;;2087648;28;20759;-76
2021/07/02 03:04:33;;;;;;;23.35;21.10;;;;;;;;;;2087574;28;20257;-75
2021/07/02 03:05:37;;;;;;;24.10;21.70;;;;;;;;;;2079522;28;20258;-77
2021/07/02 03:06:40;;;;;;;23.57;21.33;;;;;;;;;;2087552;28;20241;-76
2021/07/02 03:07:42;;;;;;;21.87;19.93;;;;;;;;;;2079505;28;20590;-75
2021/07/02 03:08:46;;;;;;;22.10;20.33;;;;;;;;;;2079830;28;20219;-77
2021/07/02 03:09:48;;;;;;;22.93;20.80;;;;;;;;;;2087770;28;20449;-76
2021/07/02 03:10:49;;;;;;;23.13;20.95;;;;;;;;;;2087712;28;20239;-77
2021/07/02 03:11:52;;;;;;;22.50;20.40;;;;;;;;;;2087876;28;20295;-76
2021/07/02 03:12:53;;;;;;;22.00;19.98;;;;;;;;;;2087275;28;20449;-75
2021/07/02 03:13:54;;;;;;;23.50;21.30;;;;;;;;;;2087699;28;20230;-75
2021/07/02 03:14:56;;;;;;;22.58;20.50;;;;;;;;;;2079752;28;20235;-75
2021/07/02 03:15:58;;;;;;;22.70;20.60;;;;;;;;;;2079570;28;20306;-76
2021/07/02 03:17:01;;;;;;;22.92;20.77;;;;;;;22.40;100.00;57707.53;2079721;28;20232;-76
2021/07/02 03:18:08;;;;;;;22.77;20.60;;;;;;;;;;2087098;28;20577;-76
2021/07/02 03:19:08;;;;;;;21.70;19.75;;;;;;;;;;2079420;28;20247;-76
2021/07/02 03:20:10;;;;;;;21.77;19.90;;;;;;;;;;2087770;28;20285;-76
2021/07/02 03:21:11;;;;;;;22.08;20.20;;;;;;;;;;2079649;28;20228;-76
2021/07/02 03:22:13;;;;;;;21.73;19.93;;;;;;;;;;2079559;28;20219;-76
2021/07/02 03:23:14;;;;;;;21.65;19.67;;;;;;;;;;2079572;28;20655;-76
2021/07/02 03:24:17;;;;;;;22.52;20.55;;;;;;;;;;2079648;28;20306;-75
2021/07/02 03:25:19;;;;;;;22.27;20.17;;;;;;;;;;2087746;28;20629;-75
2021/07/02 03:26:23;;;;;;;21.63;19.88;;;;;;;;;;2079265;28;20227;-77
2021/07/02 03:27:25;;;;;;;22.60;20.40;;;;;;;;;;2081228;28;20227;-75
2021/07/02 03:28:27;;;;;;;22.70;20.20;;;;;;;;;;2081036;28;20968;-75
2021/07/02 03:29:27;;;;;;;22.52;20.52;;;;;;;;;;2081162;28;20689;-76
2021/07/02 03:30:30;;;;;;;23.10;21.07;;;;;;;;;;2089234;28;20219;-75
2021/07/02 03:31:32;;;;;;;21.80;19.92;;;;;;;;;;2089372;28;20502;-76
2021/07/02 03:32:34;;;;;;;22.40;20.47;;;;;;;;;;2089242;28;20294;-75
2021/07/02 03:33:34;;;;;;;21.87;19.83;;;;;;;;;;2081118;28;20450;-76
2021/07/02 03:34:38;;;;;;;20.97;19.33;;;;;;;;;;2081090;28;20465;-76
2021/07/02 03:35:39;;;;;;;21.13;19.40;;;;;;;;;;2074444;28;20228;-76
2021/07/02 03:36:43;;;;;;;20.27;18.60;;;;;;;;;;2077257;28;20945;-76
2021/07/02 03:37:44;;;;;;;20.83;18.93;;;;;;;;;;2080987;28;20936;-76
2021/07/02 03:38:45;;;;;;;21.43;19.53;;;;;;;;;;2081141;28;20883;-76
2021/07/02 03:39:46;;;;;;;20.00;18.40;;;;;;;;;;2081135;28;20223;-76
2021/07/02 03:40:51;;;;;;;20.33;18.40;;;;;;;;;;2083342;28;20478;-76
2021/07/02 03:41:52;;;;;;;20.83;19.13;;;;;;;;;;2072727;28;20455;-76
2021/07/02 03:42:54;;;;;;;20.40;18.80;;;;;;;;;;2074569;28;20897;-76
2021/07/02 03:43:56;;;;;;;22.03;19.80;;;;;;;;;;2072876;28;20471;-77
2021/07/02 03:44:57;;;;;;;21.37;19.43;;;;;;;;;;2072671;28;20487;-75
2021/07/02 03:45:59;;;;;;;20.90;19.20;;;;;;;;;;2073004;28;20243;-76
2021/07/02 03:47:01;;;;;;;20.80;19.10;;;;;;;;;;2072901;28;20446;-76
2021/07/02 03:48:01;;;;;;;21.70;19.67;;;;;;;;;;2082981;28;20220;-76
2021/07/02 03:49:05;;;;;;;20.97;19.07;;;;;;;;;;2086623;28;20473;-76
2021/07/02 03:50:06;;;;;;;21.37;19.57;;;;;;;;;;2080892;28;20450;-76
2021/07/02 03:51:09;;;;;;;21.70;19.90;;;;;;;;;;2080715;28;20533;-75
2021/07/02 03:52:10;;;;;;;21.83;19.93;;;;;;;;;;2089145;28;20963;-76
2021/07/02 03:53:12;;;;;;;22.20;19.97;;;;;;;;;;2089905;28;20929;-76
2021/07/02 03:54:12;;;;;;;21.73;19.70;;;;;;;;;;2089902;28;20226;-76
2021/07/02 03:55:14;;;;;;;24.03;20.30;;;;;;;;;;2089159;28;20449;-76
2021/07/02 03:56:16;;;;;;;22.50;20.30;;;;;;;;;;2080994;28;20311;-76
2021/07/02 03:57:19;;;;;;;22.60;20.70;;;;;;;;;;2089152;28;21160;-76
2021/07/02 03:58:19;;;;;;;22.43;20.40;;;;;;;;;;2089962;28;20849;-76
2021/07/02 03:59:21;;;;;;;22.40;20.40;;;;;;;;;;2089826;28;20522;-76
2021/07/02 04:00:21;;;;;;;22.40;20.33;;;;;;;;;;2089481;28;20723;-77
2021/07/02 04:01:23;;;;;;;22.00;20.10;;;;;;;;;;2089057;28;20833;-77
2021/07/02 04:02:23;;;;;;;22.83;20.70;;;;;;;;;;2089129;28;20226;-77
2021/07/02 04:03:27;;;;;;;22.97;20.60;;;;;;;;;;2089317;28;20491;-75
2021/07/02 04:04:28;;;;;;;24.90;20.77;;;;;;;;;;2089273;28;20713;-76
2021/07/02 04:05:29;;;;;;;22.97;20.60;;;;;;;;;;2089816;28;20787;-75
2021/07/02 04:06:30;;;;;;;23.77;21.57;;;;;;;;;;2088972;28;20243;-76
2021/07/02 04:07:31;;;;;;;25.27;22.57;;;;;;;;;;2089199;28;21017;-76
2021/07/02 04:08:32;;;;;;;23.33;21.03;;;;;;;;;;2089040;28;20775;-76
2021/07/02 04:09:33;;;;;;;23.20;21.00;;;;;;;;;;2089008;28;20904;-76
2021/07/02 04:10:34;;;;;;;23.33;21.10;;;;;;;;;;2088995;28;20230;-76
2021/07/02 04:11:37;;;;;;;24.53;21.97;;;;;;;;;;2089033;28;21005;-75
2021/07/02 04:12:38;;;;;;;24.07;21.27;;;;;;;;;;2088474;28;20281;-76
2021/07/02 04:13:39;;;;;;;23.17;20.87;;;;;;;22.43;100.00;164485.69;2080609;28;20972;-77
2021/07/02 04:14:40;;;;;;;23.67;21.27;;;;;;;;;;2080696;28;20272;-76
2021/07/02 04:15:42;;;;;;;24.37;22.00;;;;;;;;;;2088965;28;20495;-76
2021/07/02 04:16:42;;;;;;;24.07;21.70;;;;;;;;;;2089107;28;20323;-76
2021/07/02 04:17:44;;;;;;;24.67;22.37;;;;;;;;;;2080694;28;20450;-76
2021/07/02 04:18:45;;;;;;;24.70;22.20;;;;;;;;;;2089046;28;20234;-76
2021/07/02 04:19:46;;;;;;;25.30;22.80;;;;;;;;;;2089221;28;20445;-76
2021/07/02 04:20:47;;;;;;;23.77;21.67;;;;;;;;;;2089038;28;20719;-76
2021/07/02 04:21:49;;;;;;;24.70;22.33;;;;;;;;;;2088733;28;20837;-76
2021/07/02 04:22:50;;;;;;;24.83;22.23;;;;;;;;;;2080663;28;20223;-76
2021/07/02 04:23:51;;;;;;;23.40;21.20;;;;;;;;;;2088811;28;20450;-76
2021/07/02 04:24:51;;;;;;;24.77;22.10;;;;;;;;;;2080177;28;20227;-76
2021/07/02 04:25:53;;;;;;;24.20;21.80;;;;;;;;;;2088974;28;20465;-77
2021/07/02 04:26:55;;;;;;;24.13;21.43;;;;;;;;;;2089673;28;20577;-75
2021/07/02 04:27:57;;;;;;;26.40;22.07;;;;;;;;;;2089541;28;20532;-75
2021/07/02 04:28:57;;;;;;;25.50;22.57;;;;;;;;;;2089654;28;20442;-76
2021/07/02 04:29:59;;;;;;;24.93;22.17;;;;;;;;;;2089541;28;20481;-76
2021/07/02 04:30:59;;;;;;;24.60;22.13;;;;;;;;;;2089002;28;20214;-76
2021/07/02 04:32:01;;;;;;;23.70;21.53;;;;;;;;;;2088897;28;20434;-76
2021/07/02 04:33:02;;;;;;;24.50;22.07;;;;;;;;;;2088705;28;20226;-76
2021/07/02 04:34:03;;;;;;;25.43;22.67;;;;;;;;;;2088683;28;20462;-76
2021/07/02 04:35:05;;;;;;;25.53;22.53;;;;;;;;;;2080514;28;20855;-76
2021/07/02 04:36:06;;;;;;;23.87;21.47;;;;;;;;;;2088816;28;20449;-76
2021/07/02 04:37:07;;;;;;;24.60;22.20;;;;;;;;;;2089141;28;21037;-76
2021/07/02 04:38:09;;;;;;;27.23;24.33;;;;;;;;;;2089507;28;20842;-76
2021/07/02 04:39:10;;;;;;;26.17;23.53;;;;;;;;;;2088631;28;20227;-76
2021/07/02 04:40:11;;;;;;;25.90;22.53;;;;;;;;;;2080930;28;20527;-75
2021/07/02 04:41:13;;;;;;;24.30;21.90;;;;;;;;;;2088849;28;20457;-76
2021/07/02 04:42:15;;;;;;;26.93;22.30;;;;;;;;;;2088527;28;20454;-76
2021/07/02 04:43:16;;;;;;;24.17;21.77;;;;;;;;;;2080662;28;20449;-77
2021/07/02 04:44:17;;;;;;;24.43;22.13;;;;;;;;;;2080452;28;20463;-77
2021/07/02 04:45:19;;;;;;;24.60;22.00;;;;;;;;;;2088902;28;20442;-77
2021/07/02 04:46:19;;;;;;;24.03;21.73;;;;;;;;;;2089760;28;20704;-76
2021/07/02 04:47:21;;;;;;;24.47;22.07;;;;;;;;;;2089535;28;20800;-76
2021/07/02 04:48:22;;;;;;;25.00;21.93;;;;;;;;;;2087067;28;20233;-76
2021/07/02 04:49:23;;;;;;;24.33;21.80;;;;;;;;;;2089147;28;20544;-76
2021/07/02 04:50:24;;;;;;;24.27;21.67;;;;;;;;;;2089370;28;20685;-76
2021/07/02 04:51:25;;;;;;;24.47;22.03;;;;;;;;;;2089274;28;20816;-76
2021/07/02 04:52:26;;;;;;;24.40;21.90;;;;;;;;;;2089408;28;20227;-76
2021/07/02 04:53:27;;;;;;;27.63;23.20;;;;;;;;;;2089416;28;20491;-76
2021/07/02 04:54:29;;;;;;;24.23;21.87;;;;;;;;;;2088631;28;20222;-76
2021/07/02 04:55:29;;;;;;;24.43;22.07;;;;;;;;;;2088777;28;20468;-76
2021/07/02 04:56:31;;;;;;;24.17;21.67;;;;;;;;;;2089411;28;20469;-76
2021/07/02 04:57:33;;;;;;;24.33;21.83;;;;;;;;;;2088663;28;20263;-76
2021/07/02 04:58:35;;;;;;;23.97;21.07;;;;;;;;;;2088661;28;20944;-77
2021/07/02 04:59:37;;;;;;;22.50;20.33;;;;;;;;;;2089309;28;20528;-76
2021/07/02 05:00:39;;;;;;;23.30;21.20;;;;;;;;;;2088296;28;20960;-77
2021/07/02 05:01:39;;;;;;;22.97;20.70;;;;;;;;;;2088743;28;20456;-76
2021/07/02 05:02:41;;;;;;;24.23;21.73;;;;;;;;;;2089424;28;20461;-76
2021/07/02 05:03:41;;;;;;;23.23;20.73;;;;;;;;;;2089312;28;20739;-77
2021/07/02 05:04:43;;;;;;;23.70;21.40;;;;;;;;;;2089302;28;20797;-76
2021/07/02 05:05:44;;;;;;;25.77;23.07;;;;;;;;;;2089303;28;20740;-76
2021/07/02 05:06:45;;;;;;;23.57;21.40;;;;;;;;;;2089105;28;20799;-76
2021/07/02 05:07:46;;;;;;;24.80;22.40;;;;;;;;;;2089485;28;20219;-76
2021/07/02 05:08:47;;;;;;;24.03;21.60;;;;;;;;;;2088569;28;20474;-76
2021/07/02 05:09:48;;;;;;;24.07;21.80;;;;;;;;;;2088456;28;20237;-76
2021/07/02 05:10:49;;;;;;;23.37;21.13;;;;;;;;;;2089008;28;20464;-76
2021/07/02 05:11:50;;;;;;;23.13;21.13;;;;;;;;;;2088630;28;20226;-76
2021/07/02 05:12:53;;;;;;;24.13;21.90;;;;;;;;;;2080441;28;20512;-76
2021/07/02 05:13:53;;;;;;;23.40;21.20;;;;;;;;;;2073604;28;20228;-75
2021/07/02 05:14:55;;;;;;;24.27;21.93;;;;;;;;;;2074023;28;20487;-76
2021/07/02 05:15:55;;;;;;;24.13;21.77;;;;;;;;;;2080267;28;20614;-76
2021/07/02 05:16:57;;;;;;;23.27;21.03;;;;;;;;;;2080986;28;20458;-76
2021/07/02 05:17:58;;;;;;;23.53;21.20;;;;;;;22.40;100.00;57711.59;2080723;28;20219;-76
2021/07/02 05:18:59;;;;;;;23.43;21.13;;;;;;;;;;2080762;28;20505;-76
2021/07/02 05:20:00;;;;;;;23.03;20.90;;;;;;;;;;2081050;28;20227;-76
2021/07/02 05:21:01;;;;;;;23.03;20.90;;;;;;;;;;2080179;28;20473;-75
2021/07/02 05:22:02;;;;;;;22.83;20.53;;;;;;;;;;2080256;28;20230;-75
2021/07/02 05:23:03;;;;;;;22.10;20.30;;;;;;;;;;2080970;28;20453;-76
2021/07/02 05:24:04;;;;;;;23.07;20.60;;;;;;;;;;2080251;28;20654;-76
2021/07/02 05:25:06;;;;;;;23.10;21.00;;;;;;;;;;2080348;28;20453;-76
2021/07/02 05:26:09;;;;;;;22.83;20.63;;;;;;;;;;2086949;28;20234;-77
2021/07/02 05:27:10;;;;;;;22.27;20.30;;;;;;;;;;2088147;28;20478;-75
2021/07/02 05:28:12;;;;;;;24.73;22.43;;;;;;;;;;2088494;28;20453;-76
2021/07/02 05:29:14;;;;;;;23.93;21.73;;;;;;;;;;2088657;28;20491;-76
2021/07/02 05:30:15;;;;;;;22.73;20.53;;;;;;;;;;2079904;28;20952;-76
2021/07/02 05:31:16;;;;;;;23.17;20.97;;;;;;;;;;2080002;28;20844;-76
2021/07/02 05:32:17;;;;;;;23.00;20.80;;;;;;;;;;2088453;28;20963;-75
2021/07/02 05:33:18;;;;;;;21.60;19.60;;;;;;;;;;2089203;28;20799;-76
2021/07/02 05:34:19;;;;;;;22.50;20.60;;;;;;;;;;2088550;28;20226;-76
2021/07/02 05:35:21;;;;;;;22.00;20.10;;;;;;;;;;2088375;28;20546;-77
2021/07/02 05:36:21;;;;;;;22.13;20.03;;;;;;;;;;2080214;28;20290;-76
2021/07/02 05:37:22;;;;;;;21.00;19.20;;;;;;;;;;2079549;28;20446;-77
2021/07/02 05:38:23;;;;;;;21.97;19.80;;;;;;;;;;2080035;28;20243;-76
2021/07/02 05:39:24;;;;;;;22.70;20.53;;;;;;;;;;2088216;28;20469;-76
2021/07/02 05:40:25;;;;;;;22.70;20.53;;;;;;;;;;2088057;28;20223;-76
2021/07/02 05:41:27;;;;;;;23.70;20.97;;;;;;;;;;2088413;28;20947;-76
2021/07/02 05:42:27;;;;;;;22.10;20.30;;;;;;;;;;2088300;28;20235;-76
2021/07/02 05:43:30;;;;;;;21.97;19.90;;;;;;;;;;2088406;28;20472;-76
2021/07/02 05:44:31;;;;;;;21.60;19.70;;;;;;;;;;2088442;28;20214;-76
2021/07/02 05:45:32;;;;;;;21.80;19.93;;;;;;;;;;2080110;28;20458;-76
2021/07/02 05:46:33;;;;;;;22.20;20.00;;;;;;;;;;2088324;28;20231;-76
2021/07/02 05:47:36;;;;;;;22.37;20.10;;;;;;;;;;2088369;28;20489;-75
2021/07/02 05:48:37;;;;;;;21.30;19.40;;;;;;;;;;2079882;28;20654;-76
2021/07/02 05:49:38;;;;;;;21.27;19.63;;;;;;;;;;2079192;28;20470;-76
2021/07/02 05:50:39;;;;;;;22.27;20.17;;;;;;;;;;2088258;28;20218;-76
2021/07/02 05:51:40;;;;;;;22.57;20.33;;;;;;;;;;2089018;28;20477;-76
2021/07/02 05:52:41;;;;;;;22.80;20.70;;;;;;;;;;2088226;28;20722;-75
2021/07/02 05:53:42;;;;;;;22.70;20.80;;;;;;;;;;2079928;28;20861;-76
2021/07/02 05:54:47;;;;;;;22.67;20.30;;;;;;;;;;2088050;28;20222;-76
2021/07/02 05:55:49;;;;;;;21.87;20.03;;;;;;;;;;2088745;28;20803;-76
2021/07/02 05:56:51;;;;;;;22.57;20.33;;;;;;;;;;2088944;28;20567;-76
2021/07/02 05:57:52;;;;;;;22.33;20.17;;;;;;;;;;2082355;28;20465;-77